createdAt,value
2023-05-14T00:00:52.718Z,1013.84
2023-05-14T00:01:53.624Z,1013.83
2023-05-14T00:02:54.612Z,1013.82
2023-05-14T00:03:55.251Z,1013.81
2023-05-14T00:04:55.703Z,1013.80
2023-05-14T00:05:56.591Z,1013.79
2023-05-14T00:06:57.489Z,1013.79
2023-05-14T00:07:58.382Z,1013.79
2023-05-14T00:08:59.376Z,1013.78
2023-05-14T00:09:59.843Z,1013.78
2023-05-14T00:11:00.721Z,1013.78
2023-05-14T00:12:01.616Z,1013.78
2023-05-14T00:13:02.542Z,1013.77
2023-05-14T00:14:03.438Z,1013.77
2023-05-14T00:15:04.335Z,1013.76
2023-05-14T00:16:05.227Z,1013.75
2023-05-14T00:17:06.126Z,1013.75
2023-05-14T00:18:07.292Z,1013.74
2023-05-14T00:19:07.766Z,1013.73
2023-05-14T00:20:08.688Z,1013.72
2023-05-14T00:21:09.562Z,1013.71
2023-05-14T00:22:10.473Z,1013.71
2023-05-14T00:23:11.392Z,1013.70
2023-05-14T00:24:12.291Z,1013.69
2023-05-14T00:25:13.198Z,1013.69
2023-05-14T00:26:14.107Z,1013.68
2023-05-14T00:27:15.100Z,1013.68
2023-05-14T00:28:15.575Z,1013.67
2023-05-14T00:29:16.469Z,1013.67
2023-05-14T00:30:17.382Z,1013.66
2023-05-14T00:31:18.303Z,1013.66
2023-05-14T00:32:19.317Z,1013.64
2023-05-14T00:33:19.677Z,1013.64
2023-05-14T00:34:20.657Z,1013.64
2023-05-14T00:35:21.616Z,1013.63
2023-05-14T00:36:22.028Z,1013.63
2023-05-14T00:37:22.936Z,1013.62
2023-05-14T00:38:23.834Z,1013.62
2023-05-14T00:39:24.748Z,1013.63
2023-05-14T00:40:25.747Z,1013.62
2023-05-14T00:41:26.193Z,1013.63
2023-05-14T00:42:27.109Z,1013.64
2023-05-14T00:43:27.995Z,1013.65
2023-05-14T00:44:28.883Z,1013.64
2023-05-14T00:45:29.776Z,1013.61
2023-05-14T00:46:30.747Z,1013.59
2023-05-14T00:47:31.646Z,1013.57
2023-05-14T00:48:32.532Z,1013.56
2023-05-14T00:49:33.464Z,1013.56
2023-05-14T00:50:34.364Z,1013.55
2023-05-14T00:51:35.266Z,1013.55
2023-05-14T00:52:36.172Z,1013.55
2023-05-14T00:53:37.063Z,1013.56
2023-05-14T00:54:37.968Z,1013.55
2023-05-14T00:55:38.906Z,1013.55
2023-05-14T00:56:39.806Z,1013.54
2023-05-14T00:57:40.386Z,1013.53
2023-05-14T00:58:41.309Z,1013.53
2023-05-14T00:59:42.222Z,1013.54
2023-05-14T01:00:43.263Z,1013.54
2023-05-14T01:01:43.659Z,1013.55
2023-05-14T01:02:44.658Z,1013.56
2023-05-14T01:03:45.200Z,1013.57
2023-05-14T01:04:45.672Z,1013.58
2023-05-14T01:05:46.574Z,1013.57
2023-05-14T01:06:47.494Z,1013.57
2023-05-14T01:07:48.390Z,1013.57
2023-05-14T01:08:49.276Z,1013.57
2023-05-14T01:09:50.208Z,1013.56
2023-05-14T01:10:51.114Z,1013.56
2023-05-14T01:11:52.008Z,1013.55
2023-05-14T01:12:52.920Z,1013.53
2023-05-14T01:13:53.818Z,1013.52
2023-05-14T01:14:54.717Z,1013.51
2023-05-14T01:15:55.616Z,1013.50
2023-05-14T01:16:56.690Z,1013.49
2023-05-14T01:17:57.190Z,1013.48
2023-05-14T01:18:58.102Z,1013.46
2023-05-14T01:19:58.968Z,1013.45
2023-05-14T01:20:59.898Z,1013.44
2023-05-14T01:22:00.823Z,1013.43
2023-05-14T01:23:01.718Z,1013.42
2023-05-14T01:24:02.636Z,1013.42
2023-05-14T01:25:03.527Z,1013.41
2023-05-14T01:26:04.428Z,1013.41
2023-05-14T01:27:05.322Z,1013.41
2023-05-14T01:28:06.260Z,1013.40
2023-05-14T01:29:07.171Z,1013.40
2023-05-14T01:30:08.059Z,1013.40
2023-05-14T01:31:08.974Z,1013.38
2023-05-14T01:32:09.999Z,1013.37
2023-05-14T01:33:10.410Z,1013.36
2023-05-14T01:34:11.311Z,1013.34
2023-05-14T01:35:12.203Z,1013.33
2023-05-14T01:36:13.131Z,1013.32
2023-05-14T01:37:14.039Z,1013.31
2023-05-14T01:38:14.921Z,1013.32
2023-05-14T01:39:15.817Z,1013.33
2023-05-14T01:40:16.761Z,1013.35
2023-05-14T01:41:17.631Z,1013.36
2023-05-14T01:42:18.538Z,1013.36
2023-05-14T01:43:19.530Z,1013.35
2023-05-14T01:44:19.951Z,1013.35
2023-05-14T01:45:20.848Z,1013.33
2023-05-14T01:46:21.838Z,1013.31
2023-05-14T01:47:22.752Z,1013.30
2023-05-14T01:48:23.700Z,1013.29
2023-05-14T01:49:24.591Z,1013.28
2023-05-14T01:50:25.699Z,1013.29
2023-05-14T01:51:26.227Z,1013.31
2023-05-14T01:52:27.118Z,1013.34
2023-05-14T01:53:27.996Z,1013.34
2023-05-14T01:54:28.884Z,1013.34
2023-05-14T01:55:29.815Z,1013.33
2023-05-14T01:56:30.751Z,1013.33
2023-05-14T01:57:31.659Z,1013.32
2023-05-14T01:58:32.565Z,1013.30
2023-05-14T01:59:33.448Z,1013.28
2023-05-14T02:00:34.374Z,1013.27
2023-05-14T02:01:35.320Z,1013.27
2023-05-14T02:02:36.296Z,1013.26
2023-05-14T02:03:37.168Z,1013.25
2023-05-14T02:04:38.075Z,1013.24
2023-05-14T02:05:38.981Z,1013.24
2023-05-14T02:06:39.890Z,1013.23
2023-05-14T02:07:40.776Z,1013.23
2023-05-14T02:08:41.675Z,1013.22
2023-05-14T02:09:42.593Z,1013.21
2023-05-14T02:10:43.532Z,1013.19
2023-05-14T02:11:44.406Z,1013.17
2023-05-14T02:12:45.345Z,1013.15
2023-05-14T02:13:46.218Z,1013.14
2023-05-14T02:14:47.144Z,1013.13
2023-05-14T02:15:48.062Z,1013.11
2023-05-14T02:16:48.959Z,1013.10
2023-05-14T02:17:49.896Z,1013.08
2023-05-14T02:18:50.850Z,1013.08
2023-05-14T02:19:51.746Z,1013.08
2023-05-14T02:20:52.658Z,1013.08
2023-05-14T02:21:53.569Z,1013.08
2023-05-14T02:22:54.445Z,1013.08
2023-05-14T02:23:55.369Z,1013.06
2023-05-14T02:24:56.301Z,1013.03
2023-05-14T02:25:57.194Z,1013.02
2023-05-14T02:26:58.095Z,1013.00
2023-05-14T02:27:58.988Z,1012.98
2023-05-14T02:28:59.916Z,1012.97
2023-05-14T02:30:00.944Z,1012.97
2023-05-14T02:31:01.373Z,1012.97
2023-05-14T02:32:02.248Z,1012.97
2023-05-14T02:33:03.325Z,1012.98
2023-05-14T02:34:03.741Z,1012.99
2023-05-14T02:35:04.669Z,1012.98
2023-05-14T02:36:05.558Z,1012.97
2023-05-14T02:37:06.526Z,1012.96
2023-05-14T02:38:07.441Z,1012.95
2023-05-14T02:39:08.338Z,1012.95
2023-05-14T02:40:09.236Z,1012.96
2023-05-14T02:41:10.188Z,1012.97
2023-05-14T02:42:10.928Z,1012.98
2023-05-14T02:43:11.854Z,1013.00
2023-05-14T02:44:12.749Z,1013.02
2023-05-14T02:45:13.657Z,1013.04
2023-05-14T02:46:14.571Z,1013.06
2023-05-14T02:47:15.467Z,1013.06
2023-05-14T02:48:16.357Z,1013.03
2023-05-14T02:49:17.250Z,1013.01
2023-05-14T02:50:18.138Z,1012.98
2023-05-14T02:51:19.051Z,1012.96
2023-05-14T02:52:19.985Z,1012.94
2023-05-14T02:53:20.880Z,1012.92
2023-05-14T02:54:21.760Z,1012.91
2023-05-14T02:55:22.657Z,1012.91
2023-05-14T02:56:23.639Z,1012.92
2023-05-14T02:57:24.682Z,1012.93
2023-05-14T02:58:25.912Z,1012.95
2023-05-14T02:59:26.834Z,1012.95
2023-05-14T03:00:26.630Z,1012.95
2023-05-14T03:01:27.404Z,1012.94
2023-05-14T03:02:28.219Z,1012.91
2023-05-14T03:03:29.314Z,1012.89
2023-05-14T03:04:30.048Z,1012.89
2023-05-14T03:05:30.917Z,1012.90
2023-05-14T03:06:31.848Z,1012.91
2023-05-14T03:07:32.751Z,1012.91
2023-05-14T03:08:33.626Z,1012.90
2023-05-14T03:09:36.006Z,1012.88
2023-05-14T03:10:35.302Z,1012.86
2023-05-14T03:11:36.214Z,1012.84
2023-05-14T03:12:37.099Z,1012.84
2023-05-14T03:13:37.988Z,1012.83
2023-05-14T03:14:38.907Z,1012.82
2023-05-14T03:15:39.823Z,1012.81
2023-05-14T03:16:40.783Z,1012.82
2023-05-14T03:17:41.698Z,1012.82
2023-05-14T03:18:42.656Z,1012.83
2023-05-14T03:19:43.124Z,1012.82
2023-05-14T03:20:44.122Z,1012.81
2023-05-14T03:21:44.673Z,1012.80
2023-05-14T03:22:45.573Z,1012.80
2023-05-14T03:23:46.469Z,1012.83
2023-05-14T03:24:47.375Z,1012.84
2023-05-14T03:25:48.292Z,1012.82
2023-05-14T03:26:49.278Z,1012.80
2023-05-14T03:27:50.092Z,1012.80
2023-05-14T03:28:50.996Z,1012.81
2023-05-14T03:29:51.986Z,1012.84
2023-05-14T03:30:52.427Z,1012.86
2023-05-14T03:31:53.375Z,1012.87
2023-05-14T03:32:54.327Z,1012.86
2023-05-14T03:33:55.226Z,1012.83
2023-05-14T03:34:56.160Z,1012.80
2023-05-14T03:35:57.102Z,1012.79
2023-05-14T03:36:57.965Z,1012.79
2023-05-14T03:37:58.894Z,1012.81
2023-05-14T03:38:59.870Z,1012.82
2023-05-14T03:40:00.292Z,1012.84
2023-05-14T03:41:01.190Z,1012.85
2023-05-14T03:42:02.076Z,1012.85
2023-05-14T03:43:02.976Z,1012.85
2023-05-14T03:44:03.892Z,1012.84
2023-05-14T03:45:04.808Z,1012.84
2023-05-14T03:46:05.761Z,1012.83
2023-05-14T03:47:06.677Z,1012.85
2023-05-14T03:48:07.889Z,1012.86
2023-05-14T03:49:08.445Z,1012.86
2023-05-14T03:50:08.889Z,1012.84
2023-05-14T03:51:09.778Z,1012.84
2023-05-14T03:52:10.658Z,1012.85
2023-05-14T03:53:11.608Z,1012.86
2023-05-14T03:54:12.500Z,1012.83
2023-05-14T03:55:13.390Z,1012.80
2023-05-14T03:56:14.296Z,1012.81
2023-05-14T03:57:15.204Z,1012.85
2023-05-14T03:58:16.163Z,1012.87
2023-05-14T03:59:17.036Z,1012.88
2023-05-14T04:00:17.944Z,1012.89
2023-05-14T04:01:18.886Z,1012.89
2023-05-14T04:02:19.852Z,1012.90
2023-05-14T04:03:20.852Z,1012.92
2023-05-14T04:04:21.511Z,1012.94
2023-05-14T04:05:21.973Z,1012.94
2023-05-14T04:06:22.924Z,1012.92
2023-05-14T04:07:23.985Z,1012.92
2023-05-14T04:08:24.459Z,1012.93
2023-05-14T04:09:25.379Z,1012.94
2023-05-14T04:10:26.299Z,1012.94
2023-05-14T04:11:27.228Z,1012.95
2023-05-14T04:12:28.140Z,1012.96
2023-05-14T04:13:29.046Z,1012.95
2023-05-14T04:14:29.951Z,1012.94
2023-05-14T04:15:30.873Z,1012.92
2023-05-14T04:16:31.805Z,1012.91
2023-05-14T04:17:34.993Z,1012.89
2023-05-14T04:18:33.529Z,1012.88
2023-05-14T04:19:34.436Z,1012.87
2023-05-14T04:20:35.327Z,1012.86
2023-05-14T04:21:36.252Z,1012.84
2023-05-14T04:22:37.193Z,1012.84
2023-05-14T04:23:38.074Z,1012.83
2023-05-14T04:24:38.960Z,1012.82
2023-05-14T04:25:39.878Z,1012.82
2023-05-14T04:26:40.854Z,1012.82
2023-05-14T04:27:41.766Z,1012.84
2023-05-14T04:28:42.672Z,1012.84
2023-05-14T04:29:43.553Z,1012.83
2023-05-14T04:30:44.506Z,1012.83
2023-05-14T04:34:40.252Z,1012.81
2023-05-14T04:35:41.188Z,1012.80
2023-05-14T04:36:42.082Z,1012.79
2023-05-14T04:37:42.963Z,1012.78
2023-05-14T04:38:43.893Z,1012.78
2023-05-14T04:39:44.806Z,1012.79
2023-05-14T04:40:45.720Z,1012.80
2023-05-14T04:41:46.631Z,1012.80
2023-05-14T04:42:47.507Z,1012.81
2023-05-14T04:43:48.411Z,1012.81
2023-05-14T04:44:49.320Z,1012.83
2023-05-14T04:45:50.254Z,1012.84
2023-05-14T04:46:51.134Z,1012.85
2023-05-14T04:47:52.065Z,1012.86
2023-05-14T04:48:52.958Z,1012.86
2023-05-14T04:49:53.895Z,1012.87
2023-05-14T04:50:54.778Z,1012.90
2023-05-14T04:51:55.667Z,1012.92
2023-05-14T04:52:56.554Z,1012.93
2023-05-14T04:53:57.502Z,1012.94
2023-05-14T04:54:58.375Z,1012.93
2023-05-14T04:55:59.286Z,1012.91
2023-05-14T04:57:00.160Z,1012.90
2023-05-14T04:58:01.077Z,1012.88
2023-05-14T04:59:01.988Z,1012.89
2023-05-14T05:00:02.880Z,1012.89
2023-05-14T05:01:03.847Z,1012.89
2023-05-14T05:02:04.732Z,1012.88
2023-05-14T05:03:05.768Z,1012.87
2023-05-14T05:04:06.366Z,1012.87
2023-05-14T05:05:07.240Z,1012.88
2023-05-14T05:06:08.142Z,1012.87
2023-05-14T05:07:09.013Z,1012.88
2023-05-14T05:08:09.945Z,1012.89
2023-05-14T05:09:10.870Z,1012.89
2023-05-14T05:10:11.726Z,1012.89
2023-05-14T05:11:12.607Z,1012.88
2023-05-14T05:12:13.519Z,1012.88
2023-05-14T05:13:14.416Z,1012.88
2023-05-14T05:14:15.325Z,1012.89
2023-05-14T05:15:16.227Z,1012.89
2023-05-14T05:16:17.148Z,1012.88
2023-05-14T05:17:18.092Z,1012.89
2023-05-14T05:18:18.970Z,1012.90
2023-05-14T05:19:26.566Z,1012.89
2023-05-14T05:20:21.790Z,1012.89
2023-05-14T05:21:21.272Z,1012.89
2023-05-14T05:22:22.204Z,1012.89
2023-05-14T05:23:23.095Z,1012.89
2023-05-14T05:24:24.000Z,1012.89
2023-05-14T05:25:24.867Z,1012.91
2023-05-14T05:26:25.789Z,1012.92
2023-05-14T05:27:26.702Z,1012.93
2023-05-14T05:28:27.600Z,1012.94
2023-05-14T05:29:28.504Z,1012.95
2023-05-14T05:30:29.389Z,1012.96
2023-05-14T05:31:30.345Z,1012.97
2023-05-14T05:32:31.342Z,1012.96
2023-05-14T05:33:31.733Z,1012.97
2023-05-14T05:34:32.633Z,1012.97
2023-05-14T05:35:33.527Z,1012.98
2023-05-14T05:36:34.444Z,1012.98
2023-05-14T05:37:35.336Z,1012.99
2023-05-14T05:38:36.238Z,1013.01
2023-05-14T05:39:37.138Z,1013.02
2023-05-14T05:40:38.049Z,1013.03
2023-05-14T05:41:38.962Z,1013.03
2023-05-14T05:42:39.869Z,1013.02
2023-05-14T05:43:40.745Z,1013.02
2023-05-14T05:44:41.671Z,1013.01
2023-05-14T05:45:42.577Z,1012.99
2023-05-14T05:46:43.504Z,1012.99
2023-05-14T05:47:44.466Z,1012.99
2023-05-14T05:48:45.316Z,1013.00
2023-05-14T05:49:46.257Z,1013.00
2023-05-14T05:50:47.194Z,1013.00
2023-05-14T05:51:48.067Z,1013.00
2023-05-14T05:52:48.957Z,1012.99
2023-05-14T05:53:49.867Z,1013.00
2023-05-14T05:54:50.781Z,1013.00
2023-05-14T05:55:51.719Z,1013.00
2023-05-14T05:56:52.663Z,1013.01
2023-05-14T05:57:53.541Z,1013.02
2023-05-14T05:58:54.456Z,1013.03
2023-05-14T05:59:55.345Z,1013.04
2023-05-14T06:00:56.283Z,1013.03
2023-05-14T06:01:57.226Z,1013.03
2023-05-14T06:02:58.124Z,1013.03
2023-05-14T06:03:59.037Z,1013.03
2023-05-14T06:04:59.959Z,1013.03
2023-05-14T06:06:00.866Z,1013.04
2023-05-14T06:07:01.751Z,1013.03
2023-05-14T06:08:02.649Z,1013.03
2023-05-14T06:09:03.592Z,1013.04
2023-05-14T06:10:04.490Z,1013.04
2023-05-14T06:11:05.361Z,1013.03
2023-05-14T06:12:06.260Z,1013.03
2023-05-14T06:13:07.202Z,1013.03
2023-05-14T06:14:08.120Z,1013.03
2023-05-14T06:15:09.026Z,1013.03
2023-05-14T06:16:09.985Z,1013.03
2023-05-14T06:17:10.897Z,1013.03
2023-05-14T06:18:11.819Z,1013.04
2023-05-14T06:19:12.813Z,1013.04
2023-05-14T06:20:13.227Z,1013.04
2023-05-14T06:21:14.130Z,1013.05
2023-05-14T06:22:15.017Z,1013.06
2023-05-14T06:23:15.918Z,1013.06
2023-05-14T06:24:16.804Z,1013.06
2023-05-14T06:25:17.722Z,1013.06
2023-05-14T06:26:18.592Z,1013.07
2023-05-14T06:27:19.523Z,1013.07
2023-05-14T06:28:20.403Z,1013.08
2023-05-14T06:29:21.307Z,1013.09
2023-05-14T06:30:22.527Z,1013.09
2023-05-14T06:31:23.090Z,1013.10
2023-05-14T06:32:24.219Z,1013.10
2023-05-14T06:33:24.703Z,1013.11
2023-05-14T06:34:25.581Z,1013.11
2023-05-14T06:35:26.479Z,1013.12
2023-05-14T06:36:27.450Z,1013.11
2023-05-14T06:37:27.911Z,1013.11
2023-05-14T06:38:28.830Z,1013.12
2023-05-14T06:39:29.710Z,1013.12
2023-05-14T06:40:30.621Z,1013.13
2023-05-14T06:41:31.514Z,1013.13
2023-05-14T06:42:32.402Z,1013.13
2023-05-14T06:43:33.292Z,1013.12
2023-05-14T06:44:34.173Z,1013.12
2023-05-14T06:45:35.196Z,1013.10
2023-05-14T06:46:36.085Z,1013.10
2023-05-14T06:47:37.031Z,1013.11
2023-05-14T06:48:37.963Z,1013.09
2023-05-14T06:49:38.840Z,1013.07
2023-05-14T06:50:39.720Z,1013.06
2023-05-14T06:51:40.647Z,1013.06
2023-05-14T06:52:41.560Z,1013.08
2023-05-14T06:53:42.459Z,1013.08
2023-05-14T06:54:43.394Z,1013.09
2023-05-14T06:55:44.322Z,1013.08
2023-05-14T06:56:45.218Z,1013.09
2023-05-14T06:57:46.106Z,1013.07
2023-05-14T06:58:47.020Z,1013.06
2023-05-14T06:59:47.901Z,1013.06
2023-05-14T07:00:48.814Z,1013.03
2023-05-14T07:01:49.878Z,1013.04
2023-05-14T07:02:50.411Z,1013.02
2023-05-14T07:03:51.396Z,1013.02
2023-05-14T07:04:52.281Z,1013.00
2023-05-14T07:05:53.190Z,1013.00
2023-05-14T07:06:54.076Z,1013.01
2023-05-14T07:07:54.958Z,1012.99
2023-05-14T07:08:55.882Z,1012.98
2023-05-14T07:09:56.811Z,1012.96
2023-05-14T07:10:57.749Z,1012.94
2023-05-14T07:11:58.627Z,1012.93
2023-05-14T07:12:59.508Z,1012.95
2023-05-14T07:14:00.393Z,1012.94
2023-05-14T07:15:01.364Z,1012.95
2023-05-14T07:16:01.828Z,1012.94
2023-05-14T07:17:02.798Z,1012.93
2023-05-14T07:18:03.736Z,1012.92
2023-05-14T07:19:04.721Z,1012.92
2023-05-14T07:20:05.638Z,1012.90
2023-05-14T07:21:06.622Z,1012.91
2023-05-14T07:22:07.527Z,1012.91
2023-05-14T07:23:07.976Z,1012.91
2023-05-14T07:24:08.876Z,1012.91
2023-05-14T07:25:09.759Z,1012.90
2023-05-14T07:26:10.679Z,1012.90
2023-05-14T07:27:11.540Z,1012.90
2023-05-14T07:28:12.427Z,1012.89
2023-05-14T07:29:13.376Z,1012.89
2023-05-14T07:30:14.255Z,1012.90
2023-05-14T07:31:15.149Z,1012.88
2023-05-14T07:32:16.033Z,1012.91
2023-05-14T07:33:16.969Z,1012.90
2023-05-14T07:34:17.901Z,1012.91
2023-05-14T07:35:18.832Z,1012.90
2023-05-14T07:36:19.700Z,1012.89
2023-05-14T07:37:21.944Z,1012.88
2023-05-14T07:38:21.515Z,1012.88
2023-05-14T07:39:22.408Z,1012.89
2023-05-14T07:40:23.469Z,1012.89
2023-05-14T07:41:24.007Z,1012.87
2023-05-14T07:42:35.255Z,1012.87
2023-05-14T07:43:26.711Z,1012.86
2023-05-14T07:44:26.604Z,1012.87
2023-05-14T07:45:27.490Z,1012.86
2023-05-14T07:46:28.370Z,1012.88
2023-05-14T07:47:29.379Z,1012.84
2023-05-14T07:48:29.823Z,1012.83
2023-05-14T07:49:30.690Z,1012.83
2023-05-14T07:50:31.578Z,1012.82
2023-05-14T07:51:32.467Z,1012.81
2023-05-14T07:52:33.376Z,1012.80
2023-05-14T07:53:34.276Z,1012.82
2023-05-14T07:54:35.147Z,1012.82
2023-05-14T07:55:36.031Z,1012.81
2023-05-14T07:56:36.965Z,1012.82
2023-05-14T07:57:37.867Z,1012.80
2023-05-14T07:58:38.368Z,1012.78
2023-05-14T07:59:39.258Z,1012.78
2023-05-14T08:00:40.214Z,1012.78
2023-05-14T08:01:40.838Z,1012.77
2023-05-14T08:02:41.386Z,1012.78
2023-05-14T08:03:41.836Z,1012.76
2023-05-14T08:04:42.772Z,1012.75
2023-05-14T08:05:43.690Z,1012.74
2023-05-14T08:06:44.636Z,1012.75
2023-05-14T08:07:45.530Z,1012.72
2023-05-14T08:08:46.421Z,1012.75
2023-05-14T08:09:47.336Z,1012.75
2023-05-14T08:10:48.307Z,1012.72
2023-05-14T08:11:49.340Z,1012.76
2023-05-14T08:12:57.340Z,1012.69
2023-05-14T08:13:50.694Z,1012.70
2023-05-14T08:14:51.566Z,1012.69
2023-05-14T08:15:52.481Z,1012.69
2023-05-14T08:16:53.439Z,1012.68
2023-05-14T08:17:54.418Z,1012.70
2023-05-14T08:18:54.946Z,1012.69
2023-05-14T08:19:55.874Z,1012.68
2023-05-14T08:20:57.151Z,1012.71
2023-05-14T08:21:57.496Z,1012.71
2023-05-14T08:22:58.401Z,1012.70
2023-05-14T08:23:59.260Z,1012.68
2023-05-14T08:25:00.190Z,1012.68
2023-05-14T08:26:01.058Z,1012.69
2023-05-14T08:27:01.969Z,1012.70
2023-05-14T08:28:02.830Z,1012.67
2023-05-14T08:29:03.715Z,1012.72
2023-05-14T08:30:04.674Z,1012.71
2023-05-14T08:31:05.648Z,1012.71
2023-05-14T08:32:19.402Z,1012.68
2023-05-14T08:33:08.321Z,1012.69
2023-05-14T08:34:08.230Z,1012.69
2023-05-14T08:35:09.136Z,1012.68
2023-05-14T08:36:10.053Z,1012.69
2023-05-14T08:37:10.945Z,1012.65
2023-05-14T08:38:11.824Z,1012.65
2023-05-14T08:39:12.738Z,1012.65
2023-05-14T08:40:13.636Z,1012.65
2023-05-14T08:41:14.510Z,1012.68
2023-05-14T08:42:15.442Z,1012.67
2023-05-14T08:43:16.364Z,1012.70
2023-05-14T08:44:17.300Z,1012.67
2023-05-14T08:45:18.199Z,1012.68
2023-05-14T08:46:19.124Z,1012.61
2023-05-14T08:47:20.023Z,1012.65
2023-05-14T08:48:21.018Z,1012.65
2023-05-14T08:49:21.423Z,1012.63
2023-05-14T08:50:23.206Z,1012.60
2023-05-14T08:51:23.026Z,1012.57
2023-05-14T08:52:23.918Z,1012.58
2023-05-14T08:53:24.835Z,1012.53
2023-05-14T08:54:25.730Z,1012.55
2023-05-14T08:55:26.628Z,1012.56
2023-05-14T08:56:27.545Z,1012.52
2023-05-14T08:57:28.516Z,1012.54
2023-05-14T08:58:29.386Z,1012.51
2023-05-14T08:59:30.284Z,1012.54
2023-05-14T09:00:31.204Z,1012.55
2023-05-14T09:01:32.189Z,1012.52
2023-05-14T09:02:33.331Z,1012.51
2023-05-14T09:03:33.757Z,1012.49
2023-05-14T09:04:34.794Z,1012.50
2023-05-14T09:05:35.306Z,1012.46
2023-05-14T09:06:36.193Z,1012.45
2023-05-14T09:07:37.116Z,1012.46
2023-05-14T09:08:38.020Z,1012.43
2023-05-14T09:09:39.576Z,1012.41
2023-05-14T09:10:39.517Z,1012.40
2023-05-14T09:11:40.428Z,1012.41
2023-05-14T09:12:41.421Z,1012.36
2023-05-14T09:13:42.254Z,1012.37
2023-05-14T09:14:43.144Z,1012.37
2023-05-14T09:15:44.023Z,1012.36
2023-05-14T09:16:45.073Z,1012.35
2023-05-14T09:17:45.447Z,1012.37
2023-05-14T09:18:46.341Z,1012.38
2023-05-14T09:19:47.202Z,1012.38
2023-05-14T09:20:48.116Z,1012.35
2023-05-14T09:21:49.145Z,1012.37
2023-05-14T09:22:49.528Z,1012.38
2023-05-14T09:23:50.412Z,1012.36
2023-05-14T09:24:51.302Z,1012.34
2023-05-14T09:25:52.258Z,1012.34
2023-05-14T09:26:53.255Z,1012.33
2023-05-14T09:27:54.790Z,1012.33
2023-05-14T09:28:54.992Z,1012.30
2023-05-14T09:29:55.881Z,1012.29
2023-05-14T09:30:56.820Z,1012.30
2023-05-14T09:31:57.794Z,1012.30
2023-05-14T09:32:58.337Z,1012.30
2023-05-14T09:33:59.183Z,1012.33
2023-05-14T09:35:00.106Z,1012.31
2023-05-14T09:36:01.022Z,1012.30
2023-05-14T09:37:01.900Z,1012.27
2023-05-14T09:38:02.788Z,1012.24
2023-05-14T09:39:03.681Z,1012.25
2023-05-14T09:40:04.596Z,1012.26
2023-05-14T09:41:05.490Z,1012.24
2023-05-14T09:42:08.056Z,1012.24
2023-05-14T09:43:06.988Z,1012.23
2023-05-14T09:44:07.861Z,1012.22
2023-05-14T09:45:08.856Z,1012.27
2023-05-14T09:46:09.732Z,1012.24
2023-05-14T09:47:10.711Z,1012.21
2023-05-14T09:48:11.187Z,1012.21
2023-05-14T09:49:12.089Z,1012.18
2023-05-14T09:50:12.998Z,1012.17
2023-05-14T09:51:13.910Z,1012.18
2023-05-14T09:52:14.782Z,1012.17
2023-05-14T09:53:15.674Z,1012.19
2023-05-14T09:54:16.595Z,1012.18
2023-05-14T09:55:17.496Z,1012.15
2023-05-14T09:56:18.385Z,1012.12
2023-05-14T09:57:19.295Z,1012.12
2023-05-14T09:58:20.225Z,1012.13
2023-05-14T09:59:21.186Z,1012.10
2023-05-14T10:00:21.807Z,1012.11
2023-05-14T10:01:22.496Z,1012.08
2023-05-14T10:02:22.965Z,1012.05
2023-05-14T10:03:23.908Z,1012.03
2023-05-14T10:04:24.885Z,1012.01
2023-05-14T10:05:25.719Z,1011.99
2023-05-14T10:06:26.608Z,1011.98
2023-05-14T10:07:27.511Z,1011.98
2023-05-14T10:08:28.742Z,1011.97
2023-05-14T10:09:29.136Z,1011.94
2023-05-14T10:10:30.039Z,1011.91
2023-05-14T10:11:30.947Z,1011.91
2023-05-14T10:12:31.819Z,1011.91
2023-05-14T10:13:32.859Z,1011.90
2023-05-14T10:14:33.749Z,1011.90
2023-05-14T10:15:34.686Z,1011.89
2023-05-14T10:16:35.674Z,1011.88
2023-05-14T10:17:36.598Z,1011.90
2023-05-14T10:18:37.564Z,1011.92
2023-05-14T10:19:37.984Z,1011.89
2023-05-14T10:20:38.904Z,1011.89
2023-05-14T10:21:39.808Z,1011.88
2023-05-14T10:22:40.778Z,1011.87
2023-05-14T10:23:41.206Z,1011.86
2023-05-14T10:24:42.113Z,1011.87
2023-05-14T10:25:43.553Z,1011.88
2023-05-14T10:26:43.539Z,1011.85
2023-05-14T10:27:44.493Z,1011.88
2023-05-14T10:28:45.431Z,1011.88
2023-05-14T10:29:46.347Z,1011.86
2023-05-14T10:30:46.987Z,1011.84
2023-05-14T10:31:47.807Z,1011.82
2023-05-14T10:32:48.325Z,1011.83
2023-05-14T10:33:49.222Z,1011.86
2023-05-14T10:34:50.085Z,1011.87
2023-05-14T10:35:51.016Z,1011.84
2023-05-14T10:36:52.001Z,1011.80
2023-05-14T10:37:52.901Z,1011.78
2023-05-14T10:38:53.798Z,1011.77
2023-05-14T10:39:54.832Z,1011.76
2023-05-14T10:40:55.795Z,1011.78
2023-05-14T10:41:56.269Z,1011.76
2023-05-14T10:42:57.210Z,1011.74
2023-05-14T10:43:57.935Z,1011.76
2023-05-14T10:44:58.980Z,1011.75
2023-05-14T10:45:59.368Z,1011.73
2023-05-14T10:47:00.339Z,1011.72
2023-05-14T10:48:01.316Z,1011.70
2023-05-14T10:49:02.252Z,1011.69
2023-05-14T10:50:03.216Z,1011.72
2023-05-14T10:51:04.221Z,1011.71
2023-05-14T10:52:04.567Z,1011.66
2023-05-14T10:53:05.514Z,1011.67
2023-05-14T10:54:05.988Z,1011.64
2023-05-14T10:55:07.007Z,1011.64
2023-05-14T10:56:07.383Z,1011.61
2023-05-14T10:57:08.319Z,1011.58
2023-05-14T10:58:09.195Z,1011.61
2023-05-14T10:59:10.091Z,1011.57
2023-05-14T11:00:11.031Z,1011.57
2023-05-14T11:01:11.943Z,1011.55
2023-05-14T11:02:12.974Z,1011.57
2023-05-14T11:03:13.515Z,1011.53
2023-05-14T11:04:14.065Z,1011.54
2023-05-14T11:05:14.947Z,1011.56
2023-05-14T11:06:15.943Z,1011.54
2023-05-14T11:07:16.413Z,1011.53
2023-05-14T11:08:17.289Z,1011.55
2023-05-14T11:09:18.218Z,1011.56
2023-05-14T11:10:19.199Z,1011.55
2023-05-14T11:11:19.632Z,1011.54
2023-05-14T11:12:20.623Z,1011.54
2023-05-14T11:13:21.080Z,1011.51
2023-05-14T11:14:22.466Z,1011.48
2023-05-14T11:15:22.833Z,1011.46
2023-05-14T11:16:24.185Z,1011.43
2023-05-14T11:17:24.773Z,1011.43
2023-05-14T11:18:25.715Z,1011.46
2023-05-14T11:19:26.702Z,1011.44
2023-05-14T11:20:27.509Z,1011.45
2023-05-14T11:21:28.011Z,1011.47
2023-05-14T11:22:28.932Z,1011.46
2023-05-14T11:23:29.879Z,1011.43
2023-05-14T11:24:30.795Z,1011.43
2023-05-14T11:25:31.705Z,1011.41
2023-05-14T11:26:32.676Z,1011.42
2023-05-14T11:27:34.073Z,1011.41
2023-05-14T11:28:33.995Z,1011.38
2023-05-14T11:29:34.910Z,1011.39
2023-05-14T11:30:35.824Z,1011.36
2023-05-14T11:31:36.550Z,1011.33
2023-05-14T11:32:37.454Z,1011.31
2023-05-14T11:33:38.334Z,1011.28
2023-05-14T11:34:39.263Z,1011.27
2023-05-14T11:35:40.241Z,1011.29
2023-05-14T11:36:41.155Z,1011.29
2023-05-14T11:37:41.629Z,1011.28
2023-05-14T11:38:42.522Z,1011.29
2023-05-14T11:39:43.414Z,1011.28
2023-05-14T11:40:44.307Z,1011.27
2023-05-14T11:41:45.246Z,1011.26
2023-05-14T11:42:46.217Z,1011.24
2023-05-14T11:43:47.139Z,1011.21
2023-05-14T11:44:48.084Z,1011.18
2023-05-14T11:45:49.018Z,1011.16
2023-05-14T11:46:50.093Z,1011.15
2023-05-14T11:47:50.718Z,1011.15
2023-05-14T11:48:51.174Z,1011.13
2023-05-14T11:49:52.097Z,1011.14
2023-05-14T11:50:53.112Z,1011.12
2023-05-14T11:51:53.575Z,1011.10
2023-05-14T11:52:54.495Z,1011.09
2023-05-14T11:53:55.489Z,1011.07
2023-05-14T11:54:55.992Z,1011.09
2023-05-14T11:55:56.879Z,1011.07
2023-05-14T11:56:57.828Z,1011.04
2023-05-14T11:57:58.743Z,1011.04
2023-05-14T11:58:59.631Z,1011.03
2023-05-14T12:00:00.534Z,1011.04
2023-05-14T12:01:01.465Z,1011.01
2023-05-14T12:02:02.858Z,1010.99
2023-05-14T12:03:03.334Z,1011.00
2023-05-14T12:04:04.308Z,1010.99
2023-05-14T12:05:05.198Z,1011.00
2023-05-14T12:06:06.107Z,1011.00
2023-05-14T12:07:07.033Z,1011.00
2023-05-14T12:08:07.971Z,1011.01
2023-05-14T12:09:08.816Z,1011.00
2023-05-14T12:10:09.725Z,1011.00
2023-05-14T12:11:10.665Z,1011.00
2023-05-14T12:12:11.596Z,1011.01
2023-05-14T12:13:12.066Z,1011.00
2023-05-14T12:14:13.033Z,1011.00
2023-05-14T12:15:14.110Z,1010.99
2023-05-14T12:16:14.592Z,1010.99
2023-05-14T12:17:14.999Z,1010.96
2023-05-14T12:18:24.064Z,1010.94
2023-05-14T12:19:17.439Z,1010.92